createdAt,value
2022-08-18T00:02:38.704Z,0
2022-08-18T00:12:38.978Z,0
2022-08-18T00:22:39.216Z,0
2022-08-18T00:32:39.945Z,0
2022-08-18T00:42:40.576Z,0
2022-08-18T00:52:41.392Z,0
2022-08-18T01:02:41.590Z,0
2022-08-18T01:12:44.649Z,0
2022-08-18T01:22:43.084Z,0
2022-08-18T01:32:44.030Z,0
2022-08-18T01:52:45.331Z,0
2022-08-18T02:02:45.690Z,0
2022-08-18T02:12:46.574Z,0
2022-08-18T02:22:47.093Z,0
2022-08-18T02:42:47.424Z,0
2022-08-18T02:45:25.809Z,0
2022-08-18T02:52:56.195Z,0
2022-08-18T03:02:56.326Z,0
2022-08-18T03:12:56.983Z,0
2022-08-18T03:32:58.051Z,0
2022-08-18T04:53:02.214Z,0
2022-08-18T05:23:04.285Z,0
2022-08-18T05:33:04.943Z,0
2022-08-18T05:43:05.774Z,0
2022-08-18T05:53:13.629Z,0
2022-08-18T06:03:06.768Z,0
2022-08-18T06:13:07.293Z,0
2022-08-18T06:23:08.176Z,0
2022-08-18T06:33:09.080Z,0
2022-08-18T06:43:10.009Z,0
2022-08-18T06:53:18.979Z,0
2022-08-18T07:03:11.029Z,0
2022-08-18T07:13:11.763Z,0
2022-08-18T07:23:12.402Z,0
2022-08-18T07:33:13.087Z,0
2022-08-18T07:43:13.385Z,0
2022-08-18T07:53:13.799Z,0
2022-08-18T08:03:14.147Z,0
2022-08-18T08:13:19.334Z,0
2022-08-18T08:23:14.923Z,0
2022-08-18T08:43:16.859Z,0
2022-08-18T08:53:18.364Z,0
2022-08-18T09:03:17.788Z,0
2022-08-18T09:13:18.366Z,0
2022-08-18T09:23:19.125Z,0
2022-08-18T09:43:20.441Z,0
2022-08-18T09:53:20.963Z,0
2022-08-18T10:03:25.406Z,0
2022-08-18T10:33:22.077Z,0
2022-08-18T10:43:41.562Z,0
2022-08-18T10:53:38.787Z,0
2022-08-18T11:03:50.756Z,0
2022-08-18T11:13:24.378Z,0
2022-08-18T11:23:25.116Z,0
2022-08-18T11:33:25.495Z,0
2022-08-18T11:43:26.429Z,0
2022-08-18T11:53:26.593Z,0
2022-08-18T12:03:28.389Z,0
2022-08-18T12:23:38.767Z,0
2022-08-18T12:33:34.260Z,0
2022-08-18T13:13:31.998Z,0
2022-08-18T13:23:32.145Z,0
2022-08-18T13:33:34.284Z,0
2022-08-18T13:43:34.347Z,0
2022-08-18T13:53:34.264Z,12
2022-08-18T14:13:38.052Z,66
2022-08-18T15:03:38.513Z,95
2022-08-18T15:13:38.728Z,95
2022-08-18T15:23:39.462Z,95
2022-08-18T15:33:40.096Z,96
2022-08-18T15:43:45.844Z,95
2022-08-18T15:53:44.715Z,94
2022-08-18T16:03:41.565Z,89
2022-08-18T16:13:41.840Z,90
2022-08-18T16:23:42.005Z,91
2022-08-18T16:33:42.505Z,90
2022-08-18T16:53:43.603Z,94
2022-08-18T17:03:44.366Z,94
2022-08-18T17:23:45.803Z,95
2022-08-18T17:33:46.062Z,94
2022-08-18T17:43:47.034Z,92
2022-08-18T17:53:47.167Z,92
2022-08-18T18:03:48.205Z,91
2022-08-18T18:23:49.736Z,87
2022-08-18T18:33:50.345Z,84
2022-08-18T18:43:50.671Z,77
2022-08-18T18:53:50.837Z,70
2022-08-18T19:03:51.421Z,59
2022-08-18T19:13:54.237Z,45
2022-08-18T19:23:52.111Z,35
2022-08-18T19:33:52.951Z,1
2022-08-18T19:43:53.642Z,0
2022-08-18T19:53:54.348Z,0
2022-08-18T20:03:54.400Z,0
2022-08-18T20:13:54.991Z,0
2022-08-18T20:23:55.747Z,0
2022-08-18T20:33:56.693Z,0
2022-08-18T20:43:57.049Z,0
2022-08-18T20:53:57.574Z,0
2022-08-18T21:13:59.497Z,0
2022-08-18T21:24:00.298Z,0
2022-08-18T21:44:01.204Z,0
2022-08-18T21:54:01.930Z,0
2022-08-18T22:14:03.463Z,0
2022-08-18T22:44:04.934Z,0
2022-08-18T22:54:05.819Z,0
2022-08-18T23:04:06.416Z,0
2022-08-18T23:14:07.020Z,0
2022-08-18T23:24:07.137Z,0
2022-08-18T23:34:07.373Z,0
2022-08-18T23:44:07.911Z,0
